createdAt,value
2023-01-30T00:01:55.103Z,56
2023-01-30T00:03:55.143Z,57
2023-01-30T00:05:55.211Z,51
2023-01-30T00:07:55.311Z,51
2023-01-30T00:09:55.436Z,57
2023-01-30T00:11:55.503Z,50
2023-01-30T00:13:55.608Z,46
2023-01-30T00:15:55.700Z,51
2023-01-30T00:17:55.795Z,53
2023-01-30T00:19:55.918Z,55
2023-01-30T00:21:55.987Z,75
2023-01-30T00:23:56.086Z,69
2023-01-30T00:25:56.158Z,64
2023-01-30T00:27:56.287Z,61
2023-01-30T00:30:02.917Z,65
2023-01-30T00:31:56.450Z,54
2023-01-30T00:33:56.496Z,57
2023-01-30T00:35:56.622Z,63
2023-01-30T00:37:56.715Z,55
2023-01-30T00:39:56.784Z,54
2023-01-30T00:41:56.883Z,54
2023-01-30T00:43:56.992Z,60
2023-01-30T00:45:57.140Z,65
2023-01-30T00:47:57.163Z,65
2023-01-30T00:49:57.295Z,58
2023-01-30T00:51:57.336Z,63
2023-01-30T00:53:57.399Z,57
2023-01-30T00:55:57.501Z,50
2023-01-30T00:57:57.616Z,53
2023-01-30T00:59:57.679Z,52
2023-01-30T01:01:57.818Z,50
2023-01-30T01:03:57.867Z,51
2023-01-30T01:05:57.998Z,49
2023-01-30T01:07:58.066Z,50
2023-01-30T01:09:58.260Z,57
2023-01-30T01:11:58.266Z,59
2023-01-30T01:13:58.369Z,59
2023-01-30T01:15:58.506Z,58
2023-01-30T01:17:58.545Z,54
2023-01-30T01:19:58.664Z,54
2023-01-30T01:21:58.728Z,50
2023-01-30T01:23:58.791Z,46
2023-01-30T01:25:58.886Z,47
2023-01-30T01:27:58.979Z,48
2023-01-30T01:31:59.229Z,45
2023-01-30T01:33:59.274Z,47
2023-01-30T01:35:59.356Z,45
2023-01-30T01:37:59.427Z,44
2023-01-30T01:39:59.485Z,44
2023-01-30T01:41:59.579Z,45
2023-01-30T01:43:59.642Z,43
2023-01-30T01:45:59.796Z,44
2023-01-30T01:47:59.843Z,40
2023-01-30T01:49:59.987Z,42
2023-01-30T01:52:00.039Z,43
2023-01-30T01:54:00.131Z,44
2023-01-30T01:56:00.187Z,47
2023-01-30T01:58:00.298Z,43
2023-01-30T02:00:00.376Z,45
2023-01-30T02:02:00.516Z,42
2023-01-30T02:04:00.538Z,45
2023-01-30T02:06:00.620Z,43
2023-01-30T02:08:00.728Z,42
2023-01-30T02:10:01.102Z,45
2023-01-30T02:12:00.924Z,49
2023-01-30T02:14:01.001Z,45
2023-01-30T02:16:01.089Z,45
2023-01-30T02:18:01.181Z,48
2023-01-30T02:20:01.333Z,45
2023-01-30T02:22:01.345Z,48
2023-01-30T02:24:01.447Z,45
2023-01-30T02:26:01.531Z,46
2023-01-30T02:28:01.591Z,47
2023-01-30T02:30:01.681Z,46
2023-01-30T02:32:01.750Z,47
2023-01-30T02:34:01.869Z,52
2023-01-30T02:36:01.935Z,50
2023-01-30T02:38:02.039Z,49
2023-01-30T02:40:02.107Z,51
2023-01-30T02:42:02.209Z,49
2023-01-30T02:44:02.278Z,51
2023-01-30T02:46:02.444Z,48
2023-01-30T02:48:02.479Z,44
2023-01-30T02:50:02.567Z,46
2023-01-30T02:52:02.635Z,46
2023-01-30T02:54:02.738Z,45
2023-01-30T02:56:02.823Z,47
2023-01-30T02:58:02.893Z,46
2023-01-30T03:00:03.014Z,48
2023-01-30T03:02:03.081Z,51
2023-01-30T03:04:03.147Z,51
2023-01-30T03:06:03.254Z,53
2023-01-30T03:08:03.315Z,47
2023-01-30T03:10:03.410Z,51
2023-01-30T03:12:03.509Z,50
2023-01-30T03:14:03.597Z,50
2023-01-30T03:16:03.689Z,46
2023-01-30T03:18:03.794Z,49
2023-01-30T03:20:03.856Z,49
2023-01-30T03:22:03.966Z,47
2023-01-30T03:24:04.076Z,49
2023-01-30T03:26:04.166Z,50
2023-01-30T03:28:04.257Z,49
2023-01-30T03:30:04.339Z,49
2023-01-30T03:32:04.496Z,49
2023-01-30T03:34:04.526Z,49
2023-01-30T03:36:04.638Z,50
2023-01-30T03:38:04.680Z,46
2023-01-30T03:40:04.810Z,45
2023-01-30T03:42:04.907Z,44
2023-01-30T03:44:04.968Z,45
2023-01-30T03:46:05.094Z,43
2023-01-30T03:48:05.172Z,48
2023-01-30T03:50:05.266Z,45
2023-01-30T03:52:05.449Z,46
2023-01-30T03:54:05.500Z,44
2023-01-30T03:56:05.570Z,49
2023-01-30T03:58:05.622Z,49
2023-01-30T04:00:05.732Z,48
2023-01-30T04:02:05.863Z,44
2023-01-30T04:04:05.885Z,45
2023-01-30T04:06:05.979Z,43
2023-01-30T04:08:06.074Z,46
2023-01-30T04:10:06.195Z,41
2023-01-30T04:12:06.287Z,42
2023-01-30T04:14:06.356Z,36
2023-01-30T04:16:06.456Z,36
2023-01-30T04:18:06.520Z,36
2023-01-30T04:20:06.664Z,37
2023-01-30T04:24:06.829Z,39
2023-01-30T04:26:06.896Z,36
2023-01-30T04:28:06.976Z,35
2023-01-30T04:30:07.076Z,34
2023-01-30T04:32:07.153Z,35
2023-01-30T04:34:07.267Z,33
2023-01-30T04:38:07.422Z,34
2023-01-30T04:40:07.547Z,32
2023-01-30T04:42:07.644Z,31
2023-01-30T04:44:07.716Z,33
2023-01-30T04:46:07.805Z,33
2023-01-30T04:48:07.917Z,33
2023-01-30T04:50:08.012Z,33
2023-01-30T04:52:08.099Z,34
2023-01-30T04:54:08.184Z,34
2023-01-30T04:56:08.239Z,36
2023-01-30T04:58:08.333Z,38
2023-01-30T05:00:08.448Z,34
2023-01-30T05:02:08.555Z,33
2023-01-30T05:04:08.630Z,37
2023-01-30T05:06:08.743Z,38
2023-01-30T05:08:08.796Z,39
2023-01-30T05:10:08.919Z,38
2023-01-30T05:12:09.017Z,37
2023-01-30T05:14:09.090Z,37
2023-01-30T05:16:09.189Z,33
2023-01-30T05:18:09.274Z,35
2023-01-30T05:20:09.392Z,33
2023-01-30T05:22:09.452Z,34
2023-01-30T05:24:09.597Z,37
2023-01-30T05:26:09.730Z,35
2023-01-30T05:28:09.697Z,38
2023-01-30T05:30:09.798Z,37
2023-01-30T05:32:09.922Z,40
2023-01-30T05:34:10.009Z,43
2023-01-30T05:36:10.109Z,44
2023-01-30T05:38:10.201Z,41
2023-01-30T05:40:10.286Z,50
2023-01-30T05:42:10.384Z,57
2023-01-30T05:44:11.839Z,42
2023-01-30T05:46:10.569Z,39
2023-01-30T05:48:10.623Z,38
2023-01-30T05:50:10.721Z,37
2023-01-30T05:52:10.807Z,40
2023-01-30T05:54:10.880Z,38
2023-01-30T05:56:10.959Z,35
2023-01-30T05:58:11.048Z,34
2023-01-30T06:00:11.152Z,30
2023-01-30T06:02:12.125Z,31
2023-01-30T06:04:11.494Z,30
2023-01-30T06:06:11.436Z,30
2023-01-30T06:08:11.518Z,29
2023-01-30T06:10:11.636Z,32
2023-01-30T06:12:11.687Z,31
2023-01-30T06:14:11.786Z,37
2023-01-30T06:16:12.005Z,36
2023-01-30T06:18:11.974Z,29
2023-01-30T06:20:12.054Z,28
2023-01-30T06:22:12.166Z,32
2023-01-30T06:24:12.241Z,34
2023-01-30T06:26:12.344Z,91
2023-01-30T06:28:12.383Z,44
2023-01-30T06:30:12.476Z,54
2023-01-30T06:32:12.559Z,45
2023-01-30T06:34:12.657Z,31
2023-01-30T06:36:12.763Z,32
2023-01-30T06:38:12.828Z,36
2023-01-30T06:40:12.969Z,47
2023-01-30T06:42:13.044Z,38
2023-01-30T06:44:13.105Z,43
2023-01-30T06:46:13.308Z,41
2023-01-30T06:48:13.287Z,34
2023-01-30T06:50:13.410Z,34
2023-01-30T06:52:13.454Z,33
2023-01-30T06:54:13.672Z,31
2023-01-30T06:56:13.630Z,31
2023-01-30T06:58:13.733Z,29
2023-01-30T07:00:13.845Z,27
2023-01-30T07:04:14.036Z,26
2023-01-30T07:06:14.071Z,29
2023-01-30T07:08:14.161Z,32
2023-01-30T07:10:14.254Z,28
2023-01-30T07:12:14.301Z,32
2023-01-30T07:14:14.412Z,31
2023-01-30T07:16:14.483Z,31
2023-01-30T07:18:14.582Z,32
2023-01-30T07:20:14.677Z,42
2023-01-30T07:22:14.767Z,29
2023-01-30T07:24:14.846Z,30
2023-01-30T07:26:15.083Z,27
2023-01-30T07:28:15.043Z,33
2023-01-30T07:30:15.124Z,39
2023-01-30T07:32:15.199Z,46
2023-01-30T07:34:15.286Z,43
2023-01-30T07:36:15.383Z,65
2023-01-30T07:38:15.461Z,91
2023-01-30T07:40:15.544Z,63
2023-01-30T07:42:15.656Z,40
2023-01-30T07:44:15.755Z,31
2023-01-30T07:46:15.862Z,43
2023-01-30T07:48:16.034Z,37
2023-01-30T07:50:16.350Z,36
2023-01-30T07:52:16.055Z,28
2023-01-30T07:54:16.214Z,33
2023-01-30T07:56:16.291Z,28
2023-01-30T07:58:16.301Z,24
2023-01-30T08:00:16.824Z,28
2023-01-30T08:02:16.507Z,28
2023-01-30T08:04:16.687Z,27
2023-01-30T08:06:16.701Z,27
2023-01-30T08:08:16.748Z,30
2023-01-30T08:10:17.203Z,25
2023-01-30T08:12:16.937Z,28
2023-01-30T08:14:17.029Z,25
2023-01-30T08:16:47.175Z,31
2023-01-30T08:20:47.399Z,34
2023-01-30T08:28:47.874Z,34
2023-01-30T08:30:47.987Z,30
2023-01-30T08:32:48.297Z,31
2023-01-30T08:34:48.192Z,34
2023-01-30T08:36:48.348Z,34
2023-01-30T08:38:48.438Z,24
2023-01-30T08:42:48.671Z,27
2023-01-30T08:44:48.793Z,42
2023-01-30T08:46:49.041Z,36
2023-01-30T08:50:49.155Z,31
2023-01-30T08:56:49.505Z,31
2023-01-30T08:58:49.625Z,32
2023-01-30T09:02:49.913Z,31
2023-01-30T09:06:50.099Z,32
2023-01-30T09:08:50.179Z,31
2023-01-30T09:10:50.283Z,34
2023-01-30T09:12:50.407Z,34
2023-01-30T09:14:50.508Z,33
2023-01-30T09:16:50.667Z,29
2023-01-30T09:22:51.080Z,33
2023-01-30T09:26:51.225Z,31
2023-01-30T09:28:51.395Z,34
2023-01-30T09:30:51.487Z,43
2023-01-30T09:32:51.533Z,40
2023-01-30T09:34:51.656Z,36
2023-01-30T09:38:51.992Z,32
2023-01-30T09:40:51.991Z,35
2023-01-30T09:42:52.117Z,31
2023-01-30T09:44:52.225Z,30
2023-01-30T09:46:52.412Z,29
2023-01-30T09:58:53.041Z,26
2023-01-30T10:00:53.153Z,29
2023-01-30T10:02:53.289Z,34
2023-01-30T10:05:01.406Z,25
2023-01-30T10:06:53.500Z,27
2023-01-30T10:08:53.635Z,30
2023-01-30T10:11:09.032Z,27
2023-01-30T10:12:53.828Z,27
2023-01-30T10:14:53.905Z,25
2023-01-30T10:16:54.023Z,30
2023-01-30T10:18:54.194Z,28
2023-01-30T10:20:54.249Z,26
2023-01-30T10:22:54.337Z,52
2023-01-30T10:24:54.446Z,43
2023-01-30T10:26:54.568Z,46
2023-01-30T10:29:06.104Z,27
2023-01-30T10:30:54.842Z,84
2023-01-30T10:32:54.922Z,66
2023-01-30T10:34:55.018Z,69
2023-01-30T10:36:55.102Z,59
2023-01-30T10:38:55.203Z,43
2023-01-30T10:40:55.335Z,44
2023-01-30T10:42:55.421Z,25
2023-01-30T10:44:55.536Z,27
2023-01-30T10:46:55.763Z,27
2023-01-30T10:48:55.747Z,38
2023-01-30T10:50:55.867Z,43
2023-01-30T10:52:55.987Z,62
2023-01-30T10:54:56.095Z,47
2023-01-30T10:56:56.182Z,65
2023-01-30T10:58:56.313Z,118
2023-01-30T11:00:56.412Z,88
2023-01-30T11:02:56.571Z,75
2023-01-30T11:04:56.640Z,232
2023-01-30T11:06:56.781Z,123
2023-01-30T11:08:56.861Z,46
2023-01-30T11:10:56.953Z,61
2023-01-30T11:12:57.076Z,75
2023-01-30T11:14:57.205Z,78
2023-01-30T11:16:57.334Z,60
2023-01-30T11:19:20.645Z,47
2023-01-30T11:20:57.521Z,45
2023-01-30T11:22:57.635Z,29
2023-01-30T11:24:57.742Z,27
2023-01-30T11:26:57.880Z,24
2023-01-30T11:28:58.002Z,32
2023-01-30T11:30:58.106Z,29
2023-01-30T11:32:58.205Z,28
2023-01-30T11:34:58.284Z,30
2023-01-30T11:36:58.409Z,27
2023-01-30T11:38:58.525Z,28
2023-01-30T11:40:58.599Z,33
2023-01-30T11:42:58.697Z,35
2023-01-30T11:45:15.611Z,30
2023-01-30T11:46:58.939Z,31
2023-01-30T11:49:09.162Z,40
2023-01-30T11:50:59.122Z,41
2023-01-30T11:52:59.219Z,47
2023-01-30T11:54:59.344Z,66
2023-01-30T11:56:59.403Z,40
2023-01-30T11:58:59.525Z,44
2023-01-30T12:00:59.644Z,40
2023-01-30T12:02:59.778Z,39
2023-01-30T12:04:59.863Z,33
2023-01-30T12:06:59.950Z,40
2023-01-30T12:09:00.344Z,45
2023-01-30T12:11:00.167Z,38
2023-01-30T12:13:00.291Z,34
2023-01-30T12:15:00.425Z,35
2023-01-30T12:17:00.510Z,33
2023-01-30T12:19:00.589Z,31
2023-01-30T12:21:00.762Z,32
2023-01-30T12:23:00.825Z,41
2023-01-30T12:25:00.938Z,40
2023-01-30T12:27:01.029Z,39
2023-01-30T12:29:01.336Z,38
2023-01-30T12:31:01.389Z,35
2023-01-30T12:35:01.605Z,33
2023-01-30T12:37:01.583Z,31
2023-01-30T12:39:01.700Z,34
2023-01-30T12:41:01.807Z,41
2023-01-30T12:43:01.880Z,47
2023-01-30T12:45:01.988Z,48
2023-01-30T12:47:02.087Z,49
2023-01-30T12:49:11.019Z,49
2023-01-30T12:51:02.298Z,44
2023-01-30T12:53:02.408Z,45
2023-01-30T12:55:02.494Z,39
2023-01-30T12:57:02.602Z,37
2023-01-30T12:59:02.694Z,39
2023-01-30T13:01:02.782Z,38
2023-01-30T13:03:02.990Z,39
2023-01-30T13:05:04.568Z,51
2023-01-30T13:07:03.117Z,46
2023-01-30T13:09:03.245Z,47
2023-01-30T13:11:03.334Z,47
2023-01-30T13:13:03.416Z,55
2023-01-30T13:15:03.498Z,63
2023-01-30T13:17:03.596Z,56
2023-01-30T13:19:03.683Z,50
2023-01-30T13:21:03.853Z,43
2023-01-30T13:23:03.869Z,46
2023-01-30T13:25:04.021Z,43
2023-01-30T13:27:04.100Z,48
2023-01-30T13:29:04.284Z,43
2023-01-30T13:31:04.398Z,42
2023-01-30T13:33:04.424Z,50
2023-01-30T13:35:04.511Z,44
2023-01-30T13:37:04.664Z,46
2023-01-30T13:39:04.745Z,44
2023-01-30T13:41:04.846Z,42
2023-01-30T13:43:04.968Z,39
2023-01-30T13:45:05.069Z,41
2023-01-30T13:47:05.212Z,53
2023-01-30T13:49:05.306Z,60
2023-01-30T13:51:05.431Z,55
2023-01-30T13:53:05.515Z,48
2023-01-30T13:55:05.663Z,42
2023-01-30T13:57:05.699Z,42
2023-01-30T13:59:08.506Z,39
2023-01-30T14:01:05.997Z,42
2023-01-30T14:03:06.022Z,41
2023-01-30T14:05:06.097Z,43
2023-01-30T14:07:06.187Z,47
2023-01-30T14:09:06.293Z,46
2023-01-30T14:11:06.388Z,45
2023-01-30T14:13:06.517Z,76
2023-01-30T14:15:06.599Z,60
2023-01-30T14:17:06.645Z,54
2023-01-30T14:19:06.759Z,56
2023-01-30T14:21:06.892Z,56
2023-01-30T14:23:07.006Z,57
2023-01-30T14:25:07.066Z,51
2023-01-30T14:27:09.725Z,48
2023-01-30T14:29:07.277Z,55
2023-01-30T14:31:07.467Z,43
2023-01-30T14:33:07.497Z,59
2023-01-30T14:35:07.571Z,52
2023-01-30T14:37:07.685Z,53
2023-01-30T14:39:07.812Z,56
2023-01-30T14:41:07.906Z,53
2023-01-30T14:43:07.990Z,57
2023-01-30T14:45:08.065Z,55
2023-01-30T14:47:35.195Z,56
2023-01-30T14:49:08.272Z,50
2023-01-30T14:51:08.386Z,50
2023-01-30T14:53:08.473Z,49
2023-01-30T14:55:08.573Z,48
2023-01-30T14:57:08.736Z,81
2023-01-30T14:59:08.763Z,59
2023-01-30T15:01:09.008Z,66
2023-01-30T15:03:08.976Z,73
2023-01-30T15:05:09.091Z,73
2023-01-30T15:07:09.196Z,89
2023-01-30T15:09:09.311Z,99
2023-01-30T15:11:09.406Z,105
2023-01-30T15:13:09.506Z,109
2023-01-30T15:15:09.592Z,107
2023-01-30T15:17:09.704Z,100
2023-01-30T15:19:09.781Z,98
2023-01-30T15:21:09.874Z,102
2023-01-30T15:23:09.972Z,94
2023-01-30T15:25:10.089Z,90
2023-01-30T15:27:10.195Z,89
2023-01-30T15:29:10.270Z,95
2023-01-30T15:31:10.380Z,90
2023-01-30T15:33:10.473Z,101
2023-01-30T15:35:10.584Z,100
2023-01-30T15:37:10.708Z,149
2023-01-30T15:39:10.762Z,96
2023-01-30T15:41:10.868Z,104
2023-01-30T15:43:11.005Z,109
2023-01-30T15:45:11.114Z,109
2023-01-30T15:47:11.189Z,114
2023-01-30T15:49:11.275Z,113
2023-01-30T15:51:11.385Z,147
2023-01-30T15:53:11.487Z,197
2023-01-30T15:55:11.591Z,194
2023-01-30T15:57:11.740Z,202
2023-01-30T15:59:11.791Z,210
2023-01-30T16:01:11.944Z,205
2023-01-30T16:03:11.989Z,219
2023-01-30T16:05:12.083Z,188
2023-01-30T16:07:12.176Z,155
2023-01-30T16:09:12.264Z,130
2023-01-30T16:11:12.360Z,131
2023-01-30T16:13:12.498Z,140
2023-01-30T16:17:12.734Z,112
2023-01-30T16:19:12.809Z,132
2023-01-30T16:21:12.892Z,124
2023-01-30T16:23:12.961Z,138
2023-01-30T16:25:13.074Z,135
2023-01-30T16:27:13.145Z,114
2023-01-30T16:29:13.276Z,135
2023-01-30T16:31:13.465Z,122
2023-01-30T16:33:13.463Z,116
2023-01-30T16:35:13.558Z,123
2023-01-30T16:37:13.722Z,111
2023-01-30T16:39:13.736Z,100
2023-01-30T16:41:13.841Z,108
2023-01-30T16:43:13.901Z,110
2023-01-30T16:45:14.031Z,98
2023-01-30T16:47:14.061Z,99
2023-01-30T16:49:14.190Z,115
2023-01-30T16:51:14.273Z,139
2023-01-30T16:53:14.371Z,129
2023-01-30T16:55:14.463Z,119
2023-01-30T16:57:14.591Z,119
2023-01-30T16:59:14.640Z,117
2023-01-30T17:01:14.866Z,115
2023-01-30T17:03:14.882Z,116
2023-01-30T17:05:14.955Z,117
2023-01-30T17:07:15.085Z,127
2023-01-30T17:09:15.154Z,116
2023-01-30T17:11:15.249Z,102
2023-01-30T17:13:15.353Z,131
2023-01-30T17:15:15.436Z,105
2023-01-30T17:17:15.559Z,106
2023-01-30T17:19:15.656Z,86
2023-01-30T17:21:15.743Z,111
2023-01-30T17:23:15.840Z,129
2023-01-30T17:25:15.959Z,127
2023-01-30T17:27:16.024Z,123
2023-01-30T17:29:23.727Z,131
2023-01-30T17:31:16.334Z,111
2023-01-30T17:33:16.316Z,105
2023-01-30T17:35:16.463Z,100
2023-01-30T17:37:16.586Z,85
2023-01-30T17:39:18.215Z,88
2023-01-30T17:43:16.827Z,109
2023-01-30T17:45:17.281Z,127
2023-01-30T17:47:17.045Z,134
2023-01-30T17:49:17.184Z,124
2023-01-30T17:51:17.280Z,141
2023-01-30T17:53:17.375Z,148
2023-01-30T17:55:17.941Z,158
2023-01-30T17:57:17.560Z,162
2023-01-30T17:59:17.641Z,159
2023-01-30T18:01:17.856Z,163
2023-01-30T18:03:17.874Z,174
2023-01-30T18:05:17.966Z,222
2023-01-30T18:07:18.095Z,180
2023-01-30T18:09:18.233Z,182
2023-01-30T18:11:18.240Z,177
2023-01-30T18:13:18.383Z,165
2023-01-30T18:15:18.958Z,168
2023-01-30T18:17:18.567Z,169
2023-01-30T18:19:18.669Z,237
2023-01-30T18:21:18.765Z,257
2023-01-30T18:23:18.869Z,174
2023-01-30T18:25:19.172Z,176
2023-01-30T18:27:19.060Z,173
2023-01-30T18:29:19.150Z,188
2023-01-30T18:31:19.294Z,163
2023-01-30T18:33:19.357Z,155
2023-01-30T18:35:19.485Z,145
2023-01-30T18:37:19.578Z,146
2023-01-30T18:39:19.680Z,140
2023-01-30T18:41:19.781Z,124
2023-01-30T18:43:21.379Z,132
2023-01-30T18:45:20.006Z,137
2023-01-30T18:47:20.087Z,132
2023-01-30T18:49:20.200Z,136
2023-01-30T18:51:20.317Z,138
2023-01-30T18:53:20.394Z,144
2023-01-30T18:55:20.543Z,146
2023-01-30T18:57:20.610Z,167
2023-01-30T18:59:20.683Z,149
2023-01-30T19:01:20.806Z,162
2023-01-30T19:03:20.917Z,150
2023-01-30T19:05:21.013Z,182
2023-01-30T19:07:21.095Z,208
2023-01-30T19:09:21.224Z,233
2023-01-30T19:11:21.331Z,210
2023-01-30T19:13:21.401Z,196
2023-01-30T19:15:21.526Z,186
2023-01-30T19:17:21.611Z,172
2023-01-30T19:19:22.001Z,171
2023-01-30T19:21:22.420Z,165
2023-01-30T19:23:22.246Z,144
2023-01-30T19:25:22.308Z,152
2023-01-30T19:27:22.354Z,152
2023-01-30T19:29:22.229Z,151
2023-01-30T19:31:22.484Z,153
2023-01-30T19:33:22.422Z,151
2023-01-30T19:35:22.589Z,163
2023-01-30T19:37:22.621Z,146
2023-01-30T19:39:22.775Z,139
2023-01-30T19:41:22.839Z,140
2023-01-30T19:43:22.956Z,140
2023-01-30T19:45:23.042Z,144
2023-01-30T19:47:23.175Z,161
2023-01-30T19:49:23.226Z,179
2023-01-30T19:51:23.332Z,161
2023-01-30T19:53:23.436Z,165
2023-01-30T19:55:23.554Z,168
2023-01-30T19:57:23.638Z,171
2023-01-30T19:59:23.726Z,171
2023-01-30T20:01:23.884Z,170
2023-01-30T20:03:23.880Z,169
2023-01-30T20:05:24.004Z,163
2023-01-30T20:07:24.105Z,160
2023-01-30T20:09:24.229Z,162
2023-01-30T20:11:24.343Z,158
2023-01-30T20:13:24.439Z,160
2023-01-30T20:15:24.514Z,154
2023-01-30T20:17:24.630Z,160
2023-01-30T20:19:24.716Z,174
2023-01-30T20:21:24.809Z,171
2023-01-30T20:23:24.903Z,175
2023-01-30T20:25:25.037Z,173
2023-01-30T20:27:25.131Z,168
2023-01-30T20:29:25.227Z,148
2023-01-30T20:31:25.573Z,143
2023-01-30T20:33:25.410Z,179
2023-01-30T20:35:25.537Z,168
2023-01-30T20:37:25.627Z,180
2023-01-30T20:39:25.780Z,166
2023-01-30T20:41:25.873Z,174
2023-01-30T20:43:25.939Z,150
2023-01-30T20:45:26.057Z,155
2023-01-30T20:47:26.129Z,144
2023-01-30T20:49:26.227Z,135
2023-01-30T20:51:26.359Z,122
2023-01-30T20:53:26.438Z,111
2023-01-30T20:55:26.626Z,102
2023-01-30T20:57:26.667Z,89
2023-01-30T20:59:26.767Z,78
2023-01-30T21:01:26.889Z,74
2023-01-30T21:03:26.961Z,79
2023-01-30T21:05:27.063Z,81
2023-01-30T21:07:27.163Z,75
2023-01-30T21:09:27.283Z,79
2023-01-30T21:11:27.371Z,83
2023-01-30T21:13:27.473Z,96
2023-01-30T21:15:27.600Z,88
2023-01-30T21:17:27.670Z,91
2023-01-30T21:19:27.808Z,93
2023-01-30T21:21:27.891Z,113
2023-01-30T21:23:27.967Z,115
2023-01-30T21:25:28.285Z,100
2023-01-30T21:27:28.140Z,91
2023-01-30T21:29:28.252Z,105
2023-01-30T21:31:28.463Z,102
2023-01-30T21:33:28.411Z,101
2023-01-30T21:35:28.537Z,102
2023-01-30T21:37:28.649Z,96
2023-01-30T21:39:28.729Z,91
2023-01-30T21:41:28.880Z,107
2023-01-30T21:43:28.931Z,90
2023-01-30T21:45:29.042Z,94
2023-01-30T21:47:29.113Z,93
2023-01-30T21:49:29.244Z,86
2023-01-30T21:51:29.341Z,88
2023-01-30T21:53:29.457Z,91
2023-01-30T21:55:29.548Z,130
2023-01-30T21:57:29.639Z,137
2023-01-30T21:59:29.774Z,148
2023-01-30T22:01:29.997Z,125
2023-01-30T22:03:30.119Z,133
2023-01-30T22:05:30.055Z,115
2023-01-30T22:07:30.165Z,113
2023-01-30T22:09:30.259Z,114
2023-01-30T22:11:30.368Z,110
2023-01-30T22:13:31.552Z,105
2023-01-30T22:15:30.582Z,102
2023-01-30T22:17:30.697Z,98
2023-01-30T22:19:30.770Z,99
2023-01-30T22:21:30.866Z,102
2023-01-30T22:23:30.958Z,129
2023-01-30T22:25:31.082Z,104
2023-01-30T22:27:31.160Z,116
2023-01-30T22:29:31.255Z,109
2023-01-30T22:31:31.438Z,102
2023-01-30T22:33:31.453Z,118
2023-01-30T22:35:31.558Z,120
2023-01-30T22:37:31.660Z,108
2023-01-30T22:39:31.781Z,105
2023-01-30T22:41:31.866Z,129
2023-01-30T22:43:31.949Z,140
2023-01-30T22:45:32.058Z,130
2023-01-30T22:47:32.164Z,119
2023-01-30T22:49:32.272Z,113
2023-01-30T22:51:32.373Z,125
2023-01-30T22:53:32.481Z,126
2023-01-30T22:55:32.583Z,125
2023-01-30T22:57:32.676Z,126
2023-01-30T22:59:32.795Z,127
2023-01-30T23:01:32.855Z,121
2023-01-30T23:03:33.075Z,123
2023-01-30T23:05:33.087Z,117
2023-01-30T23:07:33.193Z,111
2023-01-30T23:09:33.281Z,121
2023-01-30T23:11:33.386Z,179
2023-01-30T23:13:33.458Z,158
2023-01-30T23:15:33.590Z,133
2023-01-30T23:17:33.646Z,141
2023-01-30T23:19:33.753Z,153
2023-01-30T23:21:33.865Z,149
2023-01-30T23:23:33.940Z,137
2023-01-30T23:25:34.066Z,134
2023-01-30T23:27:34.159Z,121
2023-01-30T23:29:34.253Z,123
2023-01-30T23:31:34.384Z,118
2023-01-30T23:33:34.460Z,121
2023-01-30T23:35:34.609Z,118
2023-01-30T23:37:34.673Z,116
2023-01-30T23:39:35.430Z,124
2023-01-30T23:41:35.358Z,121
2023-01-30T23:43:35.365Z,145
2023-01-30T23:45:35.252Z,115
2023-01-30T23:47:35.338Z,123
2023-01-30T23:49:35.519Z,118
2023-01-30T23:51:35.584Z,120
2023-01-30T23:53:35.472Z,112
2023-01-30T23:55:35.591Z,109
2023-01-30T23:57:36.212Z,112
